Главная страница
METAR-TAF:

METAR-TAF

Аэропорты :

Сённерборг, Дания

широта: 54-58N, долгота: 009-47E, высота над уровнем моря: 7 м

Текущие метеонаблюдения

Эта сводка был подготовлена 15 минут назад, в 10:21 UTC
Ветер 12 Узел от западно-северо-западный
Температура 7°C
Влажность 81%
Давление 1030 hPa
Видимость 10 км и более
небольшая облачность на высоте 2000 фута

METAR: EKSB 221021Z 30012KT 9999 FEW020 07/04 Q1030

Время: 11:36 (10:36 UTC)

Прогноз

Эта сводка был подготовлена 1 час и 44 минут назад, в 08:52 UTC
Прогноз действительный с 22-го 09 UTC до 22-го 18 UTC
Ветер 10 Узел от западно-северо-западный
Видимость 10 км и более
Отдельные облака на высоте 1500 фута

TAF: EKSB 220852Z 2209/2218 30010KT 9999 SCT015

Метеонаблюдения и прогнозы для более 4000 аэропортов (сводки METAR и TAF).

Имеющиеся станции представлены на карте желтыми и красными точками.

Чтобы увидеть название станции, наведите на нее мышь.

Затем щелкните, чтобы увидеть метеонаблюдения и метеопрогнозы.

Управление картой: чтобы увеличить масштаб, щелкните зеленые кнопки с черным крестиком; чтобы уменьшить масштаб, щелкните зеленую кнопку с тире; для просмотра соседних карт щелкайте зеленые стрелки.


METAR-TAF: